createdAt,value
2018-09-04T00:01:43.358Z,7.10
2018-09-04T00:04:12.001Z,7.93
2018-09-04T00:06:40.490Z,7.37
2018-09-04T00:09:08.942Z,7.80
2018-09-04T00:11:37.450Z,8.90
2018-09-04T00:14:06.507Z,8.67
2018-09-04T00:16:35.018Z,8.40
2018-09-04T00:19:03.464Z,7.70
2018-09-04T00:21:32.054Z,8.47
2018-09-04T00:24:00.976Z,8.47
2018-09-04T00:26:29.445Z,8.40
2018-09-04T00:28:58.359Z,9.27
2018-09-04T00:31:26.914Z,10.00
2018-09-04T00:33:55.533Z,8.53
2018-09-04T00:36:24.014Z,8.93
2018-09-04T00:38:52.514Z,10.17
2018-09-04T00:41:21.000Z,8.40
2018-09-04T00:43:49.520Z,8.43
2018-09-04T00:46:17.995Z,8.93
2018-09-04T00:48:46.444Z,9.00
2018-09-04T00:51:14.942Z,8.27
2018-09-04T00:53:43.525Z,7.80
2018-09-04T00:56:11.988Z,9.80
2018-09-04T00:58:40.462Z,8.50
2018-09-04T01:01:08.954Z,10.50
2018-09-04T01:03:37.571Z,10.67
2018-09-04T01:06:06.167Z,9.70
2018-09-04T01:08:34.663Z,9.13
2018-09-04T01:11:03.231Z,9.13
2018-09-04T01:13:31.737Z,9.83
2018-09-04T01:16:00.213Z,8.50
2018-09-04T01:18:28.699Z,9.73
2018-09-04T01:20:57.223Z,10.23
2018-09-04T01:23:25.707Z,8.73
2018-09-04T01:25:54.200Z,9.43
2018-09-04T01:28:22.658Z,11.07
2018-09-04T01:30:51.128Z,12.00
2018-09-04T01:33:19.595Z,11.40
2018-09-04T01:35:48.173Z,12.53
2018-09-04T01:38:16.670Z,12.98
2018-09-04T01:40:45.158Z,11.37
2018-09-04T01:43:13.715Z,9.90
2018-09-04T01:45:42.419Z,10.63
2018-09-04T01:48:10.974Z,10.40
2018-09-04T01:50:39.466Z,9.60
2018-09-04T01:53:08.038Z,9.77
2018-09-04T01:55:36.505Z,8.63
2018-09-04T01:58:05.276Z,9.45
2018-09-04T02:00:33.731Z,8.93
2018-09-04T02:03:02.221Z,8.80
2018-09-04T02:05:30.734Z,9.40
2018-09-04T02:07:59.210Z,10.80
2018-09-04T02:10:27.683Z,10.23
2018-09-04T02:12:56.151Z,10.45
2018-09-04T02:15:24.683Z,9.80
2018-09-04T02:17:53.155Z,8.55
2018-09-04T02:20:21.601Z,10.50
2018-09-04T02:22:50.137Z,9.28
2018-09-04T02:25:18.603Z,11.60
2018-09-04T02:27:47.071Z,11.10
2018-09-04T02:30:15.618Z,11.83
2018-09-04T02:32:44.075Z,11.57
2018-09-04T02:35:12.536Z,14.20
2018-09-04T02:37:41.411Z,12.73
2018-09-04T02:40:09.910Z,11.78
2018-09-04T02:42:38.375Z,10.90
2018-09-04T02:45:06.872Z,10.98
2018-09-04T02:47:35.363Z,11.63
2018-09-04T02:50:03.907Z,11.18
2018-09-04T02:52:32.372Z,11.03
2018-09-04T02:55:00.843Z,12.30
2018-09-04T02:57:29.318Z,11.95
2018-09-04T02:59:57.794Z,11.13
2018-09-04T03:02:26.235Z,10.90
2018-09-04T03:04:54.710Z,10.77
2018-09-04T03:07:23.187Z,11.08
2018-09-04T03:09:51.660Z,10.50
2018-09-04T03:12:20.118Z,10.03
2018-09-04T03:14:48.614Z,9.93
2018-09-04T03:17:17.092Z,10.10
2018-09-04T03:19:45.543Z,11.00
2018-09-04T03:22:14.037Z,10.70
2018-09-04T03:24:42.524Z,11.05
2018-09-04T03:27:11.011Z,10.58
2018-09-04T03:29:39.448Z,11.78
2018-09-04T03:32:07.968Z,11.33
2018-09-04T03:34:36.424Z,10.03
2018-09-04T03:37:05.046Z,10.55
2018-09-04T03:39:33.489Z,10.70
2018-09-04T03:42:02.610Z,11.20
2018-09-04T03:44:31.116Z,11.75
2018-09-04T03:46:59.554Z,12.50
2018-09-04T03:49:28.146Z,14.13
2018-09-04T03:51:56.615Z,15.50
2018-09-04T03:54:25.077Z,14.50
2018-09-04T03:56:53.535Z,14.15
2018-09-04T03:59:22.140Z,11.43
2018-09-04T04:01:50.691Z,11.65
2018-09-04T04:04:19.171Z,12.53
2018-09-04T04:06:47.652Z,12.98
2018-09-04T04:09:16.165Z,12.63
2018-09-04T04:11:44.622Z,10.45
2018-09-04T04:14:13.219Z,11.90
2018-09-04T04:16:41.718Z,12.30
2018-09-04T04:19:10.218Z,11.67
2018-09-04T04:21:38.679Z,12.87
2018-09-04T04:24:07.177Z,10.63
2018-09-04T04:26:35.626Z,12.93
2018-09-04T04:29:04.201Z,11.70
2018-09-04T04:31:32.730Z,10.93
2018-09-04T04:34:01.320Z,11.90
2018-09-04T04:36:29.804Z,11.70
2018-09-04T04:38:58.335Z,12.68
2018-09-04T04:41:26.936Z,13.07
2018-09-04T04:43:55.378Z,12.50
2018-09-04T04:46:23.888Z,12.53
2018-09-04T04:48:52.376Z,13.22
2018-09-04T04:51:20.930Z,13.30
2018-09-04T04:53:49.403Z,14.68
2018-09-04T04:56:17.897Z,15.00
2018-09-04T04:58:46.395Z,15.38
2018-09-04T05:01:15.686Z,14.67
2018-09-04T05:03:44.262Z,15.38
2018-09-04T05:06:12.783Z,15.28
2018-09-04T05:08:41.332Z,14.15
2018-09-04T05:11:09.886Z,14.90
2018-09-04T05:13:38.271Z,15.10
2018-09-04T05:16:06.802Z,12.95
2018-09-04T05:18:35.269Z,13.00
2018-09-04T05:21:04.010Z,14.13
2018-09-04T05:23:32.492Z,13.07
2018-09-04T05:26:00.964Z,12.83
2018-09-04T05:28:29.419Z,15.33
2018-09-04T05:30:57.878Z,15.77
2018-09-04T05:33:31.819Z,14.03
2018-09-04T05:36:00.912Z,12.53
2018-09-04T05:38:29.407Z,13.30
2018-09-04T05:40:57.941Z,13.13
2018-09-04T05:43:30.419Z,13.13
2018-09-04T05:46:01.843Z,12.70
2018-09-04T05:48:30.346Z,14.00
2018-09-04T05:50:58.794Z,14.80
2018-09-04T05:53:27.327Z,13.80
2018-09-04T05:55:56.066Z,14.03
2018-09-04T05:58:24.651Z,13.73
2018-09-04T06:00:58.690Z,13.10
2018-09-04T06:03:27.163Z,14.80
2018-09-04T06:05:55.643Z,13.47
2018-09-04T06:08:24.142Z,13.60
2018-09-04T06:10:52.581Z,12.03
2018-09-04T06:13:21.059Z,11.20
2018-09-04T06:15:49.507Z,12.20
2018-09-04T06:18:18.192Z,11.90
2018-09-04T06:20:46.629Z,11.57
2018-09-04T06:23:15.100Z,11.10
2018-09-04T06:25:43.581Z,11.77
2018-09-04T06:28:12.122Z,10.77
2018-09-04T06:30:40.735Z,10.80
2018-09-04T06:33:09.219Z,10.27
2018-09-04T06:35:37.677Z,11.80
2018-09-04T06:38:06.469Z,10.40
2018-09-04T06:40:34.935Z,12.83
2018-09-04T06:43:03.420Z,12.50
2018-09-04T06:45:31.907Z,12.60
2018-09-04T06:48:00.380Z,10.90
2018-09-04T06:50:28.995Z,11.10
2018-09-04T06:52:57.483Z,11.43
2018-09-04T06:55:25.964Z,11.47
2018-09-04T06:57:54.475Z,11.73
2018-09-04T07:00:22.933Z,11.70
2018-09-04T07:02:51.393Z,12.97
2018-09-04T07:05:19.909Z,12.23
2018-09-04T07:07:48.404Z,11.37
2018-09-04T07:10:17.095Z,13.27
2018-09-04T07:12:45.566Z,13.00
2018-09-04T07:15:14.095Z,12.63
2018-09-04T07:17:42.570Z,12.67
2018-09-04T07:20:11.043Z,12.60
2018-09-04T07:22:39.575Z,11.07
2018-09-04T07:25:08.067Z,11.60
2018-09-04T07:27:36.519Z,10.20
2018-09-04T07:30:05.652Z,10.70
2018-09-04T07:32:34.123Z,10.60
2018-09-04T07:35:02.604Z,10.50
2018-09-04T07:37:31.074Z,9.60
2018-09-04T07:39:59.554Z,11.57
2018-09-04T07:42:28.004Z,11.43
2018-09-04T07:44:56.450Z,10.47
2018-09-04T07:47:24.941Z,10.23
2018-09-04T07:49:53.502Z,10.83
2018-09-04T07:52:21.978Z,9.13
2018-09-04T07:54:50.432Z,10.00
2018-09-04T07:57:18.886Z,8.13
2018-09-04T07:59:47.427Z,8.60
2018-09-04T08:02:15.911Z,8.33
2018-09-04T08:04:44.514Z,8.50
2018-09-04T08:07:12.961Z,10.10
2018-09-04T08:09:41.456Z,9.13
2018-09-04T08:12:09.898Z,9.00
2018-09-04T08:14:38.408Z,9.60
2018-09-04T08:17:06.926Z,9.43
2018-09-04T08:19:35.369Z,9.97
2018-09-04T08:22:03.862Z,9.30
2018-09-04T08:24:32.327Z,10.17
2018-09-04T08:27:00.802Z,8.10
2018-09-04T08:29:29.307Z,9.57
2018-09-04T08:31:57.802Z,9.83
2018-09-04T08:34:26.347Z,10.20
2018-09-04T08:36:55.092Z,9.17
2018-09-04T08:39:23.561Z,11.47
2018-09-04T08:41:52.028Z,10.67
2018-09-04T08:44:20.487Z,10.13
2018-09-04T08:46:48.968Z,10.33
2018-09-04T08:49:17.471Z,10.63
2018-09-04T08:51:45.963Z,10.60
2018-09-04T08:54:14.472Z,11.40
2018-09-04T08:56:43.007Z,10.30
2018-09-04T08:59:11.469Z,10.57
2018-09-04T09:01:39.940Z,9.83
2018-09-04T09:04:08.407Z,10.50
2018-09-04T09:06:36.923Z,9.47
2018-09-04T09:09:07.412Z,9.00
2018-09-04T09:11:35.977Z,9.00
2018-09-04T09:14:04.507Z,8.97
2018-09-04T09:16:33.083Z,8.43
2018-09-04T09:19:01.529Z,9.07
2018-09-04T09:21:30.107Z,8.07
2018-09-04T09:23:58.582Z,9.27
2018-09-04T09:26:27.151Z,10.07
2018-09-04T09:28:55.609Z,7.53
2018-09-04T09:31:24.079Z,6.90
2018-09-04T09:33:53.139Z,6.10
2018-09-04T09:36:21.701Z,6.37
2018-09-04T09:38:50.142Z,6.90
2018-09-04T09:41:18.621Z,5.93
2018-09-04T09:43:47.086Z,7.20
2018-09-04T09:46:15.635Z,5.73
2018-09-04T09:48:44.128Z,6.63
2018-09-04T09:51:13.252Z,5.40
2018-09-04T09:53:41.885Z,5.20
2018-09-04T09:56:11.369Z,5.60
2018-09-04T09:58:40.995Z,5.63
2018-09-04T10:01:14.700Z,5.10
2018-09-04T10:03:48.603Z,5.13
2018-09-04T10:06:18.891Z,5.50
2018-09-04T10:08:47.424Z,6.70
2018-09-04T10:11:16.595Z,6.63
2018-09-04T10:13:45.224Z,6.77
2018-09-04T10:16:13.995Z,7.70
2018-09-04T10:18:42.599Z,6.57
2018-09-04T10:21:11.186Z,7.50
2018-09-04T10:23:39.672Z,7.07
2018-09-04T10:26:08.191Z,6.80
2018-09-04T10:28:36.704Z,6.30
2018-09-04T10:31:05.864Z,6.53
2018-09-04T10:33:34.367Z,6.70
2018-09-04T10:36:02.982Z,6.90
2018-09-04T10:38:31.506Z,7.60
2018-09-04T10:41:00.968Z,6.70
2018-09-04T10:43:30.699Z,7.27
2018-09-04T10:46:15.231Z,8.20
2018-09-04T10:48:43.969Z,6.33
2018-09-04T10:51:12.484Z,6.80
2018-09-04T10:53:40.937Z,6.83
2018-09-04T10:56:09.653Z,6.77
2018-09-04T10:58:38.204Z,7.10
2018-09-04T11:01:06.675Z,6.63
2018-09-04T11:03:35.116Z,5.87
2018-09-04T11:06:03.713Z,5.73
2018-09-04T11:08:32.217Z,6.80
2018-09-04T11:11:00.711Z,5.97
2018-09-04T11:13:29.223Z,5.90
2018-09-04T11:15:57.797Z,5.70
2018-09-04T11:18:26.290Z,6.60
2018-09-04T11:20:54.761Z,7.60
2018-09-04T11:23:23.287Z,8.13
2018-09-04T11:25:51.731Z,7.40
2018-09-04T11:28:20.195Z,7.80
2018-09-04T11:30:48.745Z,7.30
2018-09-04T11:33:17.177Z,8.27
2018-09-04T11:35:45.764Z,7.60
2018-09-04T11:38:14.357Z,7.40
2018-09-04T11:40:43.024Z,7.40
2018-09-04T11:43:11.488Z,7.83
2018-09-04T11:45:39.953Z,6.63
2018-09-04T11:48:08.519Z,9.83
2018-09-04T11:50:37.024Z,8.40
2018-09-04T11:53:05.550Z,7.53
2018-09-04T11:55:34.008Z,6.47
2018-09-04T11:58:02.499Z,5.70
2018-09-04T12:00:36.896Z,5.73
2018-09-04T12:03:05.574Z,6.83
2018-09-04T12:05:34.053Z,6.67
2018-09-04T12:08:02.502Z,6.73
2018-09-04T12:10:30.989Z,6.73
2018-09-04T12:12:59.527Z,6.83
2018-09-04T12:15:28.008Z,7.00
2018-09-04T12:17:56.480Z,7.83
2018-09-04T12:20:35.542Z,6.80
2018-09-04T12:23:03.995Z,6.03
2018-09-04T12:25:32.525Z,6.37
2018-09-04T12:28:02.142Z,5.90
2018-09-04T12:30:30.878Z,6.47
2018-09-04T12:33:00.423Z,6.00
2018-09-04T12:35:28.963Z,6.33
2018-09-04T12:37:57.488Z,6.40
2018-09-04T12:40:25.946Z,6.27
2018-09-04T12:42:54.414Z,7.17
2018-09-04T12:45:22.957Z,5.40
2018-09-04T12:47:53.361Z,5.80
2018-09-04T12:50:22.123Z,4.97
2018-09-04T12:52:50.676Z,6.33
2018-09-04T12:55:19.168Z,5.83
2018-09-04T12:57:47.780Z,4.80
2018-09-04T13:00:18.738Z,6.30
2018-09-04T13:02:47.585Z,5.03
2018-09-04T13:05:16.828Z,4.60
2018-09-04T13:07:45.349Z,4.63
2018-09-04T13:10:14.308Z,5.97
2018-09-04T13:12:42.809Z,5.60
2018-09-04T13:15:12.055Z,5.50
2018-09-04T13:17:40.552Z,5.03
2018-09-04T13:20:09.195Z,4.93
2018-09-04T13:22:37.690Z,4.90
2018-09-04T13:25:06.487Z,4.90
2018-09-04T13:27:34.983Z,4.60
2018-09-04T13:30:03.524Z,4.60
2018-09-04T13:32:31.998Z,4.10
2018-09-04T13:35:00.768Z,4.30
2018-09-04T13:37:29.256Z,4.97
2018-09-04T13:39:58.452Z,4.30
2018-09-04T13:42:28.604Z,5.70
2018-09-04T13:44:57.162Z,5.53
2018-09-04T13:47:30.108Z,5.00
2018-09-04T13:49:59.006Z,5.53
2018-09-04T13:53:02.656Z,5.37
2018-09-04T13:55:31.834Z,5.97
2018-09-04T13:58:00.344Z,5.43
2018-09-04T14:00:28.932Z,5.47
2018-09-04T14:02:57.591Z,5.10
2018-09-04T14:05:26.153Z,5.57
2018-09-04T14:07:54.662Z,5.70
2018-09-04T14:10:23.154Z,4.90
2018-09-04T14:12:51.640Z,5.77
2018-09-04T14:15:20.197Z,6.50
2018-09-04T14:17:48.689Z,6.10
2018-09-04T14:20:17.240Z,4.83
2018-09-04T14:22:45.728Z,6.57
2018-09-04T14:25:14.223Z,6.67
2018-09-04T14:27:42.707Z,5.87
2018-09-04T14:30:18.234Z,5.90
2018-09-04T14:32:39.719Z,6.53
2018-09-04T14:35:08.602Z,7.40
2018-09-04T14:37:37.085Z,6.57
2018-09-04T14:40:05.674Z,6.43
2018-09-04T14:42:34.107Z,6.13
2018-09-04T14:45:02.600Z,5.17
2018-09-04T14:47:31.076Z,5.43
2018-09-04T14:49:59.580Z,5.47
2018-09-04T14:52:28.019Z,6.40
2018-09-04T14:54:56.511Z,5.50
2018-09-04T14:57:25.000Z,5.83
2018-09-04T14:59:53.503Z,6.33
2018-09-04T15:02:21.968Z,6.17
2018-09-04T15:04:50.444Z,5.80
2018-09-04T15:07:18.945Z,6.10
2018-09-04T15:09:47.370Z,6.07
2018-09-04T15:12:15.901Z,5.80
2018-09-04T15:14:44.443Z,6.27
2018-09-04T15:17:12.904Z,5.97
2018-09-04T15:19:41.424Z,6.20
2018-09-04T15:22:09.888Z,6.30
2018-09-04T15:24:38.364Z,6.03
2018-09-04T15:27:06.927Z,6.33
2018-09-04T15:29:35.397Z,6.20
2018-09-04T15:32:03.980Z,6.20
2018-09-04T15:34:32.419Z,6.73
2018-09-04T15:37:01.139Z,6.10
2018-09-04T15:39:29.581Z,6.70
2018-09-04T15:41:58.216Z,6.67
2018-09-04T15:44:26.682Z,6.70
2018-09-04T15:46:56.044Z,5.63
2018-09-04T15:49:29.874Z,5.40
2018-09-04T15:51:58.417Z,6.93
2018-09-04T15:54:26.976Z,6.60
2018-09-04T15:56:55.546Z,6.10
2018-09-04T15:59:24.022Z,5.70
2018-09-04T16:01:52.587Z,6.13
2018-09-04T16:04:21.107Z,5.33
2018-09-04T16:06:49.538Z,5.30
2018-09-04T16:09:18.068Z,6.33
2018-09-04T16:11:46.711Z,5.90
2018-09-04T16:14:15.209Z,6.27
2018-09-04T16:16:43.781Z,6.33
2018-09-04T16:19:12.278Z,5.80
2018-09-04T16:21:40.735Z,5.80
2018-09-04T16:24:09.316Z,5.60
2018-09-04T16:26:37.844Z,5.40
2018-09-04T16:29:06.366Z,6.27
2018-09-04T16:31:34.844Z,6.23
2018-09-04T16:34:03.310Z,6.00
2018-09-04T16:36:31.822Z,4.60
2018-09-04T16:39:00.507Z,4.83
2018-09-04T16:41:28.973Z,5.87
2018-09-04T16:43:57.450Z,5.70
2018-09-04T16:46:25.967Z,5.47
2018-09-04T16:48:54.533Z,5.50
2018-09-04T16:51:23.022Z,5.20
2018-09-04T16:53:51.559Z,6.47
2018-09-04T16:56:20.098Z,7.53
2018-09-04T16:58:48.542Z,6.83
2018-09-04T17:01:17.147Z,8.03
2018-09-04T17:03:45.686Z,7.20
2018-09-04T17:06:14.324Z,7.20
2018-09-04T17:08:42.804Z,7.40
2018-09-04T17:11:11.307Z,6.13
2018-09-04T17:13:40.041Z,7.87
2018-09-04T17:16:08.703Z,7.10
2018-09-04T17:18:37.294Z,7.13
2018-09-04T17:21:05.921Z,7.50
2018-09-04T17:23:34.366Z,6.33
2018-09-04T17:26:02.974Z,6.60
2018-09-04T17:28:31.442Z,6.60
2018-09-04T17:30:59.949Z,6.70
2018-09-04T17:33:28.413Z,6.53
2018-09-04T17:35:56.940Z,6.80
2018-09-04T17:38:25.440Z,7.43
2018-09-04T17:40:53.890Z,6.90
2018-09-04T17:43:22.467Z,7.40
2018-09-04T17:45:51.000Z,7.60
2018-09-04T17:48:19.530Z,6.77
2018-09-04T17:50:48.109Z,6.97
2018-09-04T17:53:16.827Z,7.77
2018-09-04T17:55:45.303Z,8.00
2018-09-04T17:58:13.742Z,6.83
2018-09-04T18:00:42.252Z,8.10
2018-09-04T18:03:10.770Z,6.43
2018-09-04T18:05:39.515Z,6.87
2018-09-04T18:08:08.097Z,7.47
2018-09-04T18:10:36.695Z,7.00
2018-09-04T18:13:05.296Z,7.30
2018-09-04T18:15:33.842Z,7.70
2018-09-04T18:18:02.296Z,8.13
2018-09-04T18:20:30.865Z,6.57
2018-09-04T18:22:59.490Z,7.90
2018-09-04T18:25:28.390Z,7.17
2018-09-04T18:27:56.885Z,7.97
2018-09-04T18:30:25.527Z,6.77
2018-09-04T18:32:54.123Z,7.70
2018-09-04T18:35:22.623Z,6.90
2018-09-04T18:37:51.107Z,7.40
2018-09-04T18:40:19.621Z,6.83
2018-09-04T18:42:48.147Z,7.20
2018-09-04T18:45:28.131Z,7.17
2018-09-04T18:47:56.722Z,7.07
2018-09-04T18:50:25.203Z,7.50
2018-09-04T18:52:53.739Z,7.60
2018-09-04T18:55:22.215Z,6.30
2018-09-04T18:57:50.731Z,7.30
2018-09-04T19:00:19.319Z,8.67
2018-09-04T19:02:49.031Z,7.30
2018-09-04T19:05:17.753Z,8.30
2018-09-04T19:07:46.443Z,8.10
2018-09-04T19:10:15.051Z,7.70
2018-09-04T19:12:43.575Z,8.10
2018-09-04T19:15:12.192Z,8.60
2018-09-04T19:17:40.682Z,7.60
2018-09-04T19:20:09.482Z,7.83
2018-09-04T19:22:38.067Z,8.30
2018-09-04T19:25:06.854Z,8.33
2018-09-04T19:27:35.571Z,9.07
2018-09-04T19:30:04.473Z,8.93
2018-09-04T19:32:32.994Z,9.70
2018-09-04T19:35:01.597Z,8.00
2018-09-04T19:37:30.224Z,9.07
2018-09-04T19:39:58.733Z,9.17
2018-09-04T19:42:27.258Z,9.50
2018-09-04T19:44:55.798Z,10.03
2018-09-04T19:47:24.322Z,8.90
2018-09-04T19:49:52.986Z,9.73
2018-09-04T19:52:21.421Z,8.83
2018-09-04T19:54:50.061Z,10.03
2018-09-04T19:57:18.549Z,10.00
2018-09-04T19:59:47.227Z,10.07
2018-09-04T20:02:15.851Z,10.87
2018-09-04T20:04:44.335Z,9.80
2018-09-04T20:07:13.061Z,9.47
2018-09-04T20:09:41.604Z,11.03
2018-09-04T20:12:10.178Z,10.77
2018-09-04T20:14:38.703Z,10.53
2018-09-04T20:17:07.233Z,10.23
2018-09-04T20:19:35.803Z,10.17
2018-09-04T20:22:05.055Z,11.93
2018-09-04T20:24:33.537Z,11.30
2018-09-04T20:27:02.285Z,10.93
2018-09-04T20:29:30.890Z,10.20
2018-09-04T20:31:59.403Z,10.13
2018-09-04T20:34:27.970Z,10.53
2018-09-04T20:36:56.886Z,10.80
2018-09-04T20:39:25.449Z,11.47
2018-09-04T20:41:54.996Z,10.43
2018-09-04T20:44:23.479Z,12.03
2018-09-04T20:46:52.268Z,11.33
2018-09-04T20:49:20.895Z,12.40
2018-09-04T20:51:49.744Z,12.40
2018-09-04T20:54:18.364Z,12.40
2018-09-04T20:56:57.798Z,11.30
2018-09-04T20:59:38.352Z,12.13
2018-09-04T21:02:18.104Z,12.63
2018-09-04T21:04:57.767Z,12.07
2018-09-04T21:08:16.445Z,12.53
2018-09-04T21:10:45.601Z,11.23
2018-09-04T21:13:14.907Z,12.40
2018-09-04T21:15:43.972Z,13.73
2018-09-04T21:18:12.671Z,13.20
2018-09-04T21:20:41.272Z,12.00
2018-09-04T21:23:09.807Z,11.50
2018-09-04T21:25:38.643Z,12.07
2018-09-04T21:28:07.125Z,11.63
2018-09-04T21:30:35.620Z,11.80
2018-09-04T21:33:04.197Z,13.00
2018-09-04T21:35:32.738Z,11.70
2018-09-04T21:38:01.325Z,13.30
2018-09-04T21:40:29.841Z,12.70
2018-09-04T21:42:58.351Z,11.97
2018-09-04T21:45:26.851Z,12.90
2018-09-04T21:47:55.331Z,12.90
2018-09-04T21:50:23.872Z,12.27
2018-09-04T21:52:52.364Z,11.10
2018-09-04T21:55:20.967Z,12.37
2018-09-04T21:57:49.546Z,12.40
2018-09-04T22:00:23.558Z,12.13
2018-09-04T22:02:52.030Z,10.93
2018-09-04T22:05:20.536Z,13.77
2018-09-04T22:07:49.387Z,13.50
2018-09-04T22:10:17.973Z,13.30
2018-09-04T22:12:46.439Z,14.63
2018-09-04T22:15:14.956Z,13.67
2018-09-04T22:17:43.499Z,13.90
2018-09-04T22:20:11.966Z,13.07
2018-09-04T22:22:40.499Z,12.40
2018-09-04T22:25:08.992Z,11.57
2018-09-04T22:27:37.498Z,12.30
2018-09-04T22:30:06.048Z,13.00
2018-09-04T22:32:34.751Z,13.00
2018-09-04T22:35:03.654Z,12.57
2018-09-04T22:37:32.150Z,12.83
2018-09-04T22:40:00.602Z,11.20
2018-09-04T22:42:29.172Z,12.13
2018-09-04T22:44:57.698Z,11.37
2018-09-04T22:47:26.250Z,11.70
2018-09-04T22:50:00.182Z,11.53
2018-09-04T22:52:29.553Z,12.23
2018-09-04T22:55:01.370Z,11.67
2018-09-04T22:57:30.205Z,12.83
2018-09-04T22:59:58.671Z,13.00
2018-09-04T23:02:27.284Z,13.60
2018-09-04T23:04:55.802Z,13.20
2018-09-04T23:07:24.323Z,11.90
2018-09-04T23:09:52.802Z,13.53
2018-09-04T23:12:21.263Z,11.97
2018-09-04T23:14:49.737Z,12.77
2018-09-04T23:17:18.215Z,13.30
2018-09-04T23:19:46.823Z,13.20
2018-09-04T23:22:15.449Z,13.23
2018-09-04T23:24:43.906Z,13.97
2018-09-04T23:27:12.370Z,13.90
2018-09-04T23:29:40.853Z,13.70
2018-09-04T23:32:09.313Z,14.10
2018-09-04T23:34:38.359Z,14.53
2018-09-04T23:37:06.906Z,12.80
2018-09-04T23:39:35.373Z,12.73
2018-09-04T23:42:03.953Z,13.77
2018-09-04T23:44:32.730Z,13.00
2018-09-04T23:47:01.283Z,13.43
2018-09-04T23:49:29.875Z,14.10
2018-09-04T23:51:58.446Z,14.07
2018-09-04T23:54:27.447Z,12.37
2018-09-04T23:56:56.135Z,14.97
2018-09-04T23:59:24.655Z,15.87
